Time;durP1;ratioP1;P1;durP2;ratioP2;P2;SDS_P1;SDS_P2;PMS_P1;PMS_P2;Temp;Humidity;BMP_temperature;BMP_pressure;BME280_temperature;BME280_humidity;BME280_pressure;Samples;Min_cycle;Max_cycle;Signal;HPM_P1;HPM_P2
2023/08/12 00:00:50;;;;;;;;;2.33;2.33;;;;;21.53;100.00;101669.06;5083602;27;46289;-76
2023/08/12 00:03:15;;;;;;;;;1.67;1.67;;;;;21.57;100.00;101672.34;5085957;27;47339;-76
2023/08/12 00:05:42;;;;;;;;;2.33;2.33;;;;;21.58;100.00;101685.72;5084318;27;47325;-76
2023/08/12 00:08:08;;;;;;;;;3.00;3.00;;;;;21.59;100.00;101682.06;5082459;27;45388;-76
2023/08/12 00:10:34;;;;;;;;;2.00;2.00;;;;;21.59;100.00;101673.13;5082547;27;45379;-76
2023/08/12 00:12:59;;;;;;;;;4.00;4.00;;;;;21.40;100.00;101641.38;5094676;27;45530;-76
2023/08/12 00:15:25;;;;;;;;;3.33;3.00;;;;;21.52;100.00;101661.97;5091479;27;46296;-77
2023/08/12 00:17:51;;;;;;;;;3.67;3.33;;;;;21.56;100.00;101667.97;5083528;27;45232;-76
2023/08/12 00:20:16;;;;;;;;;3.00;2.00;;;;;21.55;100.00;101666.25;5083618;27;45469;-76
2023/08/12 00:22:42;;;;;;;;;5.00;4.67;;;;;21.58;100.00;101666.88;5081089;27;45523;-76
2023/08/12 00:25:08;;;;;;;;;6.00;5.00;;;;;21.52;100.00;101651.22;5085032;27;46694;-76
2023/08/12 00:27:33;;;;;;;;;4.00;3.00;;;;;21.53;100.00;101654.75;5087804;27;45453;-76
2023/08/12 00:29:59;;;;;;;;;5.67;4.00;;;;;21.55;100.00;101650.09;5074061;27;45399;-75
2023/08/12 00:32:24;;;;;;;;;3.00;3.00;;;;;21.55;100.00;101645.56;5087284;27;50351;-75
2023/08/12 00:34:49;;;;;;;;;4.00;3.00;;;;;21.57;100.00;101642.75;5092056;27;52889;-75
2023/08/12 00:37:15;;;;;;;;;3.67;3.67;;;;;21.56;100.00;101643.75;5073590;28;45497;-75
2023/08/12 00:39:40;;;;;;;;;5.00;3.00;;;;;21.56;100.00;101636.50;5084480;27;45475;-75
2023/08/12 00:42:05;;;;;;;;;5.00;3.00;;;;;21.52;100.00;101637.75;5097612;27;53710;-75
2023/08/12 00:44:31;;;;;;;;;4.00;4.00;;;;;21.57;100.00;101643.59;5094891;27;45322;-76
2023/08/12 00:46:56;;;;;;;;;3.00;3.00;;;;;21.51;100.00;101629.78;5084950;27;45561;-76
2023/08/12 00:49:23;;;;;;;;;4.00;4.00;;;;;21.57;100.00;101640.06;5088340;27;45372;-76
2023/08/12 00:51:49;;;;;;;;;4.00;4.00;;;;;21.54;100.00;101640.28;5087797;27;45390;-76
2023/08/12 00:54:16;;;;;;;;;4.00;3.00;;;;;21.51;100.00;101637.84;5083809;27;45565;-76
2023/08/12 00:56:43;;;;;;;;;3.00;3.00;;;;;21.56;100.00;101632.97;5101508;27;45566;-76
2023/08/12 00:59:10;;;;;;;;;3.00;3.00;;;;;21.51;100.00;101633.34;5091537;27;45655;-76
2023/08/12 01:01:39;;;;;;;;;5.00;4.00;;;;;21.52;100.00;101637.75;5085482;27;45412;-75
2023/08/12 01:04:04;;;;;;;;;5.00;5.00;;;;;21.55;100.00;101632.13;5094797;27;46855;-78
2023/08/12 01:06:30;;;;;;;;;3.00;3.00;;;;;21.48;100.00;101612.03;5089099;27;45386;-77
2023/08/12 01:08:56;;;;;;;;;7.67;4.33;;;;;21.55;100.00;101631.25;5091000;27;45525;-76
2023/08/12 01:11:45;;;;;;;;;5.67;2.67;;;;;21.45;100.00;101620.38;5075868;27;45288;-77
2023/08/12 01:14:15;;;;;;;;;4.00;2.67;;;;;21.47;100.00;101622.91;5095071;27;46991;-75
2023/08/12 01:16:47;;;;;;;;;4.00;4.00;;;;;21.52;100.00;101634.19;5083530;27;45251;-76
2023/08/12 01:19:26;;;;;;;;;3.00;3.00;;;;;21.49;100.00;101626.38;5080799;27;45372;-76
2023/08/12 01:21:54;;;;;;;;;3.67;3.67;;;;;21.51;100.00;101621.69;5063106;27;45355;-76
2023/08/12 01:24:24;;;;;;;;;4.00;4.00;;;;;21.45;100.00;101614.13;5074618;27;45603;-75
2023/08/12 01:26:49;;;;;;;;;5.00;3.00;;;;;21.46;100.00;101611.31;5096986;27;45543;-77
2023/08/12 01:29:14;;;;;;;;;4.33;2.67;;;;;21.50;100.00;101612.78;5072591;28;45451;-75
2023/08/12 01:31:48;;;;;;;;;4.67;3.00;;;;;21.51;100.00;101619.00;5083787;27;45434;-76
2023/08/12 01:34:37;;;;;;;;;2.00;2.00;;;;;21.50;100.00;101625.41;5080659;27;47007;-75
2023/08/12 01:37:07;;;;;;;;;3.00;2.00;;;;;21.52;100.00;101612.66;5082252;27;45510;-76
2023/08/12 01:39:33;;;;;;;;;3.00;3.00;;;;;21.51;100.00;101611.78;5085085;27;45399;-75
2023/08/12 01:41:59;;;;;;;;;3.00;3.00;;;;;21.39;100.00;101601.16;5096352;27;45502;-75
2023/08/12 01:44:25;;;;;;;;;2.67;2.67;;;;;21.45;100.00;101604.22;5087163;27;45367;-76
2023/08/12 01:46:50;;;;;;;;;3.00;3.00;;;;;21.48;100.00;101608.50;5090719;27;48089;-76
2023/08/12 01:49:15;;;;;;;;;2.67;2.00;;;;;21.53;100.00;101614.38;5080904;27;45534;-75
2023/08/12 01:51:41;;;;;;;;;3.00;2.33;;;;;21.53;100.00;101617.06;5072308;27;45413;-75
2023/08/12 01:54:06;;;;;;;;;2.00;2.00;;;;;21.52;100.00;101608.13;5086961;27;45515;-76
2023/08/12 01:56:31;;;;;;;;;7.00;3.00;;;;;21.53;100.00;101609.81;5086462;27;45358;-76
2023/08/12 01:58:57;;;;;;;;;2.00;2.00;;;;;21.45;100.00;101585.38;5085296;27;45481;-76
2023/08/12 02:01:22;;;;;;;;;5.67;2.67;;;;;21.53;100.00;101595.53;5079103;27;45245;-77
2023/08/12 02:03:47;;;;;;;;;2.00;2.00;;;;;21.44;100.00;101574.72;5084929;27;45292;-76
2023/08/12 02:06:13;;;;;;;;;3.00;3.00;;;;;21.56;100.00;101587.22;5066564;28;45224;-76
2023/08/12 02:08:38;;;;;;;;;1.00;1.00;;;;;21.55;100.00;101588.19;5087297;27;45487;-76
2023/08/12 02:11:03;;;;;;;;;3.33;3.00;;;;;21.51;100.00;101584.03;5090684;27;45422;-75
2023/08/12 02:13:29;;;;;;;;;3.00;1.00;;;;;21.53;100.00;101590.16;5079903;27;46953;-75
2023/08/12 02:15:55;;;;;;;;;4.00;2.00;;;;;21.53;100.00;101592.84;5081473;27;45414;-75
2023/08/12 02:18:20;;;;;;;;;3.00;3.00;;;;;21.53;100.00;101593.69;5079836;27;45438;-75
2023/08/12 02:20:47;;;;;;;;;2.00;2.00;;;;;21.55;100.00;101602.50;5078418;27;50139;-76
2023/08/12 02:23:13;;;;;;;;;2.00;2.00;;;;;21.48;100.00;101589.66;5081594;27;46382;-75
2023/08/12 02:25:38;;;;;;;;;3.33;1.33;;;;;21.56;100.00;101608.75;5076213;27;45296;-75
2023/08/12 02:28:04;;;;;;;;;1.00;1.00;;;;;21.57;100.00;101605.91;5086344;27;45469;-77
2023/08/12 02:30:30;;;;;;;;;2.00;1.33;;;;;21.56;100.00;101592.59;5076841;27;45474;-77
2023/08/12 02:32:55;;;;;;;;;0.33;0.00;;;;;21.56;100.00;101590.72;5075278;28;46996;-77
2023/08/12 02:35:20;;;;;;;;;1.00;1.00;;;;;21.55;100.00;101596.25;5080637;27;53493;-74
2023/08/12 02:37:48;;;;;;;;;0.00;0.00;;;;;21.55;100.00;101589.03;5085177;27;48919;-75
2023/08/12 02:40:13;;;;;;;;;1.00;1.00;;;;;21.53;100.00;101593.69;5098592;27;45557;-74
2023/08/12 02:42:39;;;;;;;;;0.33;0.33;;;;;21.50;100.00;101580.47;5097273;27;45414;-74
2023/08/12 02:45:05;;;;;;;;;0.00;0.00;;;;;21.49;100.00;101586.00;5083287;27;45359;-75
2023/08/12 02:47:30;;;;;;;;;0.00;0.00;;;;;21.52;100.00;101588.44;5068266;27;45419;-74
2023/08/12 02:49:55;;;;;;;;;1.00;0.00;;;;;21.48;100.00;101582.44;5091335;27;45559;-74
2023/08/12 02:52:20;;;;;;;;;0.00;0.00;;;;;21.48;100.00;101587.81;5098340;27;45590;-74
2023/08/12 02:54:46;;;;;;;;;1.00;0.00;;;;;21.47;100.00;101587.94;5096029;27;45358;-73
2023/08/12 02:57:11;;;;;;;;;0.67;0.67;;;;;21.50;100.00;101585.03;5084247;27;45757;-74
2023/08/12 02:59:36;;;;;;;;;2.00;1.00;;;;;21.47;100.00;101579.84;5084973;27;45526;-74
2023/08/12 03:02:02;;;;;;;;;0.00;0.00;;;;;21.45;100.00;101582.69;5069559;28;45494;-74
2023/08/12 03:04:29;;;;;;;;;0.00;0.00;;;;;21.44;100.00;101578.28;5098749;27;45448;-75
2023/08/12 03:06:54;;;;;;;;;0.00;0.00;;;;;21.44;100.00;101580.09;5075015;27;45503;-75
2023/08/12 03:09:20;;;;;;;;;1.00;0.00;;;;;21.40;100.00;101571.41;5061173;28;54564;-75
2023/08/12 03:11:45;;;;;;;;;0.00;0.00;;;;;21.39;100.00;101571.56;5072815;27;47057;-75
2023/08/12 03:14:10;;;;;;;;;0.00;0.00;;;;;21.36;100.00;101575.34;5080308;27;45419;-75
2023/08/12 03:16:36;;;;;;;;;0.00;0.00;;;;;21.30;100.00;101567.78;5061842;28;45388;-74
2023/08/12 03:19:01;;;;;;;;;0.00;0.00;;;;;21.18;100.00;101540.00;5079329;27;45259;-74
2023/08/12 03:21:26;;;;;;;;;0.00;0.00;;;;;21.35;100.00;101573.63;5085896;27;46166;-74
2023/08/12 03:23:52;;;;;;;;;0.00;0.00;;;;;21.30;100.00;101560.53;5092605;27;45295;-74
2023/08/12 03:26:17;;;;;;;;;0.00;0.00;;;;;21.36;100.00;101572.66;5071227;28;45485;-74
2023/08/12 03:28:42;;;;;;;;;0.00;0.00;;;;;21.34;100.00;101569.22;5081933;27;45466;-74
2023/08/12 03:31:08;;;;;;;;;0.67;0.67;;;;;21.20;100.00;101553.34;5087619;27;47168;-74
2023/08/12 03:33:33;;;;;;;;;0.00;0.00;;;;;21.24;100.00;101563.72;5098673;27;45368;-77
2023/08/12 03:35:59;;;;;;;;;0.00;0.00;;;;;21.18;100.00;101556.13;5072861;27;45325;-77
2023/08/12 03:38:24;;;;;;;;;0.00;0.00;;;;;21.24;100.00;101566.41;5087758;27;45285;-73
2023/08/12 03:40:50;;;;;;;;;0.00;0.00;;;;;21.24;100.00;101561.03;5092945;27;45307;-74
2023/08/12 03:43:15;;;;;;;;;0.00;0.00;;;;;21.22;100.00;101554.91;5072941;27;45364;-74
2023/08/12 03:45:42;;;;;;;;;1.00;0.00;;;;;21.22;100.00;101552.22;5064895;27;45443;-77
2023/08/12 03:48:08;;;;;;;;;0.00;0.00;;;;;21.16;100.00;101558.09;5084855;27;45443;-77
2023/08/12 03:50:34;;;;;;;;;0.00;0.00;;;;;21.16;100.00;101552.72;5061485;27;47472;-76
2023/08/12 03:53:00;;;;;;;;;0.00;0.00;;;;;21.18;100.00;101544.50;5067158;27;45417;-77
2023/08/12 03:55:25;;;;;;;;;0.00;0.00;;;;;21.18;100.00;101545.38;5083005;27;45673;-77
2023/08/12 03:57:51;;;;;;;;;0.00;0.00;;;;;21.15;100.00;101548.31;5086657;27;51598;-74
2023/08/12 04:00:17;;;;;;;;;0.00;0.00;;;;;21.18;100.00;101550.75;5084472;27;45502;-77
2023/08/12 04:02:43;;;;;;;;;0.00;0.00;;;;;21.20;100.00;101548.78;5071207;27;46298;-77
2023/08/12 04:05:08;;;;;;;;;0.00;0.00;;;;;21.20;100.00;101551.47;5102321;27;45248;-76
2023/08/12 04:07:36;;;;;;;;;0.00;0.00;;;;;21.21;100.00;101552.34;5101761;27;45720;-76
2023/08/12 04:10:01;;;;;;;;;0.00;0.00;;;;;21.07;100.00;101522.97;5092953;27;46514;-76
2023/08/12 04:12:27;;;;;;;;;0.00;0.00;;;;;21.18;100.00;101533.75;5078205;28;45468;-76
2023/08/12 04:14:52;;;;;;;;;0.00;0.00;;;;;21.17;100.00;101529.38;5081429;27;45299;-76
2023/08/12 04:17:17;;;;;;;;;0.00;0.00;;;;;21.15;100.00;101534.88;5083825;27;45387;-77
2023/08/12 04:19:43;;;;;;;;;0.00;0.00;;;;;21.19;100.00;101536.34;5089480;27;45535;-75
2023/08/12 04:22:08;;;;;;;;;0.00;0.00;;;;;21.20;100.00;101524.56;5083951;27;45167;-75
2023/08/12 04:24:33;;;;;;;;;0.00;0.00;;;;;21.20;100.00;101527.25;5104238;27;45679;-77
2023/08/12 04:26:59;;;;;;;;;0.00;0.00;;;;;21.19;100.00;101522.03;5093438;27;45528;-76
2023/08/12 04:29:24;;;;;;;;;0.00;0.00;;;;;21.21;100.00;101520.91;5090443;27;45472;-76
2023/08/12 04:31:49;;;;;;;;;0.00;0.00;;;;;21.10;100.00;101501.25;5088828;27;45296;-74
2023/08/12 04:34:15;;;;;;;;;0.00;0.00;;;;;21.20;100.00;101524.56;5079495;27;46348;-74
2023/08/12 04:36:40;;;;;;;;;0.00;0.00;;;;;21.21;100.00;101520.91;5085990;27;51642;-74
2023/08/12 04:39:05;;;;;;;;;0.00;0.00;;;;;21.22;100.00;101521.78;5090297;27;56017;-73
2023/08/12 04:41:30;;;;;;;;;0.00;0.00;;;;;21.21;100.00;101528.13;5095804;27;50525;-74
2023/08/12 04:43:56;;;;;;;;;1.00;0.00;;;;;21.16;100.00;101523.13;5093821;27;45524;-74
2023/08/12 04:46:21;;;;;;;;;0.00;0.00;;;;;21.08;100.00;101512.06;5089087;27;45214;-74
2023/08/12 04:48:47;;;;;;;;;0.00;0.00;;;;;21.14;100.00;101517.00;5068347;28;46198;-74
2023/08/12 04:51:12;;;;;;;;;0.00;0.00;;;;;21.19;100.00;101527.41;5074283;27;45291;-74
2023/08/12 04:53:37;;;;;;;;;0.00;0.00;;;;;21.21;100.00;101539.75;5084554;27;45525;-74
2023/08/12 04:56:03;;;;;;;;;0.67;0.00;;;;;21.16;100.00;101535.72;5083098;27;45563;-74
2023/08/12 04:58:28;;;;;;;;;0.00;0.00;;;;;21.19;100.00;101533.66;5088461;27;45285;-74
2023/08/12 05:00:53;;;;;;;;;0.00;0.00;;;;;21.08;100.00;101516.59;5097798;27;45537;-74
2023/08/12 05:03:19;;;;;;;;;0.00;0.00;;;;;21.21;100.00;101534.38;5081196;27;45297;-74
2023/08/12 05:05:49;;;;;;;;;0.00;0.00;;;;;21.04;100.00;101518.66;5083074;27;45441;-74
2023/08/12 05:08:14;;;;;;;;;0.00;0.00;;;;;21.17;100.00;101524.81;5099457;27;45406;-74
2023/08/12 05:10:39;;;;;;;;;0.00;0.00;;;;;21.17;100.00;101532.88;5072527;27;45436;-75
2023/08/12 05:13:05;;;;;;;;;0.00;0.00;;;;;21.05;100.00;101517.69;5089605;27;45205;-75
2023/08/12 05:15:30;;;;;;;;;0.00;0.00;;;;;21.12;100.00;101524.34;5082102;27;45739;-75
2023/08/12 05:17:56;;;;;;;;;0.00;0.00;;;;;21.02;100.00;101507.19;5096539;27;45313;-74
2023/08/12 05:20:21;;;;;;;;;0.00;0.00;;;;;21.09;100.00;101521.00;5067657;27;45840;-75
2023/08/12 05:22:46;;;;;;;;;0.00;0.00;;;;;21.16;100.00;101533.91;5081890;27;45408;-75
2023/08/12 05:25:12;;;;;;;;;1.00;0.00;;;;;21.17;100.00;101546.34;5084935;27;47626;-74
2023/08/12 05:27:38;;;;;;;;;0.00;0.00;;;;;21.11;100.00;101536.06;5081488;27;53944;-75
2023/08/12 05:30:04;;;;;;;;;0.00;0.00;;;;;21.15;100.00;101534.00;5081720;27;45486;-75
2023/08/12 05:32:29;;;;;;;;;0.00;0.00;;;;;21.25;100.00;101543.06;5096165;27;45408;-74
2023/08/12 05:34:55;;;;;;;;;0.00;0.00;;;;;21.28;100.00;101538.28;5091812;27;45706;-74
2023/08/12 05:37:20;;;;;;;;;0.00;0.00;;;;;21.24;100.00;101523.34;5084725;27;46092;-74
2023/08/12 05:39:46;;;;;;;;;0.00;0.00;;;;;21.28;100.00;101522.13;5090526;27;45394;-74
2023/08/12 05:42:11;;;;;;;;;2.00;0.00;;;;;21.32;100.00;101529.97;5086170;27;45292;-75
2023/08/12 05:44:36;;;;;;;;;0.00;0.00;;;;;21.37;100.00;101530.47;5078442;28;45462;-74
2023/08/12 05:47:02;;;;;;;;;1.00;0.00;;;;;21.41;100.00;101540.84;5076535;27;46560;-74
2023/08/12 05:49:27;;;;;;;;;0.00;0.00;;;;;21.39;100.00;101534.75;5081509;28;45301;-74
2023/08/12 05:51:52;;;;;;;;;1.33;1.33;;;;;21.36;100.00;101535.00;5080555;27;45832;-74
2023/08/12 05:54:18;;;;;;;;;0.33;0.00;;;;;21.39;100.00;101547.34;5063049;28;45439;-76
2023/08/12 05:56:43;;;;;;;;;0.00;0.00;;;;;21.41;100.00;101558.81;5072615;27;50911;-76
2023/08/12 05:59:08;;;;;;;;;0.00;0.00;;;;;21.37;100.00;101560.91;5085967;27;49539;-75
2023/08/12 06:01:34;;;;;;;;;0.00;0.00;;;;;21.38;100.00;101559.94;5071259;27;45372;-75
2023/08/12 06:03:59;;;;;;;;;0.00;0.00;;;;;21.36;100.00;101559.22;5064822;27;45690;-76
2023/08/12 06:06:24;;;;;;;;;0.00;0.00;;;;;21.36;100.00;101561.91;5085290;27;55754;-76
2023/08/12 06:08:50;;;;;;;;;0.00;0.00;;;;;21.35;100.00;101559.31;5071944;27;45260;-75
2023/08/12 06:11:15;;;;;;;;;0.00;0.00;;;;;21.35;100.00;101560.19;5090917;27;45280;-75
2023/08/12 06:13:40;;;;;;;;;0.00;0.00;;;;;21.37;100.00;101568.97;5087644;27;45426;-75
2023/08/12 06:16:06;;;;;;;;;1.00;1.00;;;;;21.34;100.00;101555.75;5071372;27;46477;-75
2023/08/12 06:18:33;;;;;;;;;0.00;0.00;;;;;21.26;100.00;101544.78;5095304;27;45421;-75
2023/08/12 06:20:58;;;;;;;;;0.67;0.00;;;;;21.23;100.00;101531.56;5094159;27;45371;-75
2023/08/12 06:23:23;;;;;;;;;0.00;0.00;;;;;21.33;100.00;101547.81;5092247;27;45562;-75
2023/08/12 06:25:49;;;;;;;;;1.00;1.00;;;;;21.30;100.00;101548.94;5085556;27;45320;-74
2023/08/12 06:28:14;;;;;;;;;0.00;0.00;;;;;21.27;100.00;101547.31;5087288;27;46723;-74
2023/08/12 06:30:39;;;;;;;;;1.00;0.00;;;;;21.14;100.00;101525.06;5086234;27;45406;-74
2023/08/12 06:33:05;;;;;;;;;2.00;1.00;;;;;21.19;100.00;101536.34;5094579;27;45367;-74
2023/08/12 06:35:30;;;;;;;;;0.00;0.00;;;;;21.25;100.00;101534.97;5081563;27;45305;-74
2023/08/12 06:37:55;;;;;;;;;0.00;0.00;;;;;21.23;100.00;101532.44;5088916;27;54416;-74
2023/08/12 06:40:21;;;;;;;;;3.00;2.00;;;;;21.28;100.00;101545.50;5091577;27;45346;-74
2023/08/12 06:42:46;;;;;;;;;0.00;0.00;;;;;21.30;100.00;101552.47;5097719;27;45423;-74
2023/08/12 06:45:12;;;;;;;;;2.67;2.67;;;;;21.13;100.00;101534.13;5084977;27;50308;-74
2023/08/12 06:47:37;;;;;;;;;0.00;0.00;;;;;21.15;100.00;101571.66;5092849;27;45475;-74
2023/08/12 06:50:03;;;;;;;;;0.00;0.00;;;;;21.10;100.00;101580.13;5084722;27;45312;-75
2023/08/12 06:52:28;;;;;;;;;0.00;0.00;;;;;20.89;100.00;101562.94;5078307;27;45356;-76
2023/08/12 06:54:53;;;;;;;;;0.00;0.00;;;;;20.79;100.00;101578.91;5079375;27;45289;-75
2023/08/12 06:57:19;;;;;;;;;1.00;0.00;;;;;20.71;100.00;101584.03;5081001;27;45445;-75
2023/08/12 06:59:44;;;;;;;;;0.00;0.00;;;;;20.64;100.00;101579.25;5091197;27;45327;-75
2023/08/12 07:02:09;;;;;;;;;0.00;0.00;;;;;20.53;100.00;101584.59;5085993;27;45222;-75
2023/08/12 07:04:34;;;;;;;;;0.00;0.00;;;;;20.31;100.00;101568.38;5081526;27;47269;-75
2023/08/12 07:07:00;;;;;;;;;0.00;0.00;;;;;20.38;100.00;101577.69;5083394;27;45350;-75
2023/08/12 07:09:25;;;;;;;;;2.00;0.00;;;;;20.32;100.00;101586.22;5090540;27;45389;-75
2023/08/12 07:11:51;;;;;;;;;0.67;0.00;;;;;20.17;100.00;101564.88;5089825;27;45922;-75
2023/08/12 07:14:16;;;;;;;;;0.00;0.00;;;;;20.18;100.00;101589.91;5092622;27;46355;-75
2023/08/12 07:16:41;;;;;;;;;0.00;0.00;;;;;20.17;100.00;101591.72;5065496;27;45515;-74
2023/08/12 07:19:07;;;;;;;;;0.00;0.00;;;;;20.19;100.00;101599.66;5090647;27;45512;-74
2023/08/12 07:21:32;;;;;;;;;1.00;1.00;;;;;20.24;100.00;101611.81;5081201;27;53007;-74
2023/08/12 07:23:57;;;;;;;;;1.00;1.00;;;;;20.14;100.00;101609.91;5085252;27;51615;-74
2023/08/12 07:26:22;;;;;;;;;2.00;1.00;;;;;20.02;100.00;101600.94;5085043;27;45250;-74
2023/08/12 07:28:48;;;;;;;;;3.00;1.33;;;;;19.96;100.00;101584.44;5077275;28;49194;-74
2023/08/12 07:31:13;;;;;;;;;0.00;0.00;;;;;20.22;100.00;101620.94;5073783;27;45373;-74
2023/08/12 07:33:39;;;;;;;;;1.00;1.00;;;;;20.24;100.00;101619.84;5083429;27;46655;-74
2023/08/12 07:36:04;;;;;;;;;2.00;0.00;;;;;20.26;100.00;101620.63;5094253;27;45431;-75
2023/08/12 07:38:30;;;;;;;;;0.00;0.00;;;;;20.29;100.00;101624.06;5087684;27;45700;-75
2023/08/12 07:40:56;;;;;;;;;0.00;0.00;;;;;20.33;100.00;101638.97;5077134;28;45780;-75
2023/08/12 07:43:21;;;;;;;;;1.67;1.00;;;;;20.30;100.00;101631.13;5064296;27;46706;-74
2023/08/12 07:45:53;;;;;;;;;1.00;1.00;;;;;20.30;100.00;101628.44;5099838;27;45308;-74
2023/08/12 07:48:19;;;;;;;;;1.00;0.00;;;;;20.23;100.00;101604.69;5091984;27;45561;-74
2023/08/12 07:50:45;;;;;;;;;0.00;0.00;;;;;20.40;100.00;101630.34;5085990;27;45426;-75
2023/08/12 07:53:10;;;;;;;;;1.00;1.00;;;;;20.53;100.00;101631.13;5066176;27;46956;-75
2023/08/12 07:55:36;;;;;;;;;1.00;1.00;;;;;20.62;100.00;101637.63;5078988;28;59426;-75
2023/08/12 07:58:01;;;;;;;;;0.33;0.00;;;;;20.72;100.00;101631.44;5082066;27;45939;-75
2023/08/12 08:00:26;;;;;;;;;1.00;1.00;;;;;20.70;100.00;101628.03;5086177;27;47480;-75
2023/08/12 08:02:52;;;;;;;;;2.33;0.33;;;;;20.76;100.00;101630.25;5083733;27;45573;-74
2023/08/12 08:05:17;;;;;;;;;0.67;0.00;;;;;20.88;100.00;101627.56;5085612;27;45383;-74
2023/08/12 08:07:42;;;;;;;;;1.00;1.00;;;;;20.95;100.00;101634.19;5090666;27;45268;-74
2023/08/12 08:10:08;;;;;;;;;1.00;1.00;;;;;21.03;100.00;101632.66;5079302;27;45381;-74
2023/08/12 08:12:33;;;;;;;;;1.00;1.00;;;;;20.98;100.00;101616.00;5081433;27;45738;-76
2023/08/12 08:14:59;;;;;;;;;1.00;1.00;;;;;21.03;100.00;101629.09;5076502;27;45335;-76
2023/08/12 08:17:24;;;;;;;;;1.33;1.00;;;;;21.10;100.00;101614.22;5091616;27;45406;-76
2023/08/12 08:19:49;;;;;;;;;1.00;1.00;;;;;21.27;100.00;101629.88;5100291;27;45887;-76
2023/08/12 08:22:15;;;;;;;;;1.00;1.00;;;;;21.36;100.00;101631.00;5095492;27;57882;-75
2023/08/12 08:24:40;;;;;;;;;0.00;0.00;;;;;21.43;100.00;101626.84;5095765;27;50301;-75
2023/08/12 08:27:05;;;;;;;;;1.67;1.00;;;;;21.54;100.00;101627.69;5078694;27;45776;-75
2023/08/12 08:29:30;;;;;;;;;1.33;1.33;;;;;21.85;100.00;101636.88;5088296;27;52914;-73
2023/08/12 08:31:57;;;;;;;;;4.33;4.33;;;;;21.99;100.00;101628.53;5092432;27;46032;-74
2023/08/12 08:34:22;;;;;;;;;3.67;3.33;;;;;22.14;100.00;101638.06;5064708;27;45538;-73
2023/08/12 08:36:47;;;;;;;;;5.67;4.00;;;;;22.22;100.00;101632.03;5074457;27;46533;-76
2023/08/12 08:39:13;;;;;;;;;1.67;1.67;;;;;22.31;100.00;101623.22;5099729;27;45441;-73
2023/08/12 08:41:39;;;;;;;;;1.00;1.00;;;;;22.46;100.00;101635.38;5081561;27;46172;-73
2023/08/12 08:44:08;;;;;;;;;1.00;1.00;;;;;22.57;100.00;101646.16;5087322;27;45566;-75
2023/08/12 08:46:34;;;;;;;;;1.33;1.33;;;;;22.67;100.00;101647.13;5095674;27;45463;-73
2023/08/12 08:49:03;;;;;;;;;4.67;4.67;;;;;22.79;100.00;101645.22;5083387;27;45701;-73
2023/08/12 08:51:32;;;;;;;;;2.00;2.00;;;;;22.89;100.00;101637.19;5096887;27;45434;-73
2023/08/12 08:53:59;;;;;;;;;1.00;1.00;;;;;23.02;100.00;101646.81;5081792;28;45552;-73
2023/08/12 08:56:24;;;;;;;;;5.00;4.00;;;;;23.05;100.00;101643.84;5096343;27;45546;-74
2023/08/12 08:58:50;;;;;;;;;2.00;2.00;;;;;23.07;100.00;101649.13;5089232;27;45380;-73
2023/08/12 09:01:19;;;;;;;;;4.00;1.00;;;;;23.01;100.00;101645.09;5100385;27;55131;-74
2023/08/12 09:03:46;;;;;;;;;5.00;3.33;;;;;23.08;100.00;101646.28;5098297;27;45386;-74
2023/08/12 09:06:11;;;;;;;;;3.67;2.67;;;;;22.99;100.00;101636.28;5087158;27;45301;-73
2023/08/12 09:08:40;;;;;;;;;1.00;1.00;;;;;23.05;100.00;101640.28;5087174;27;45435;-73
2023/08/12 09:11:06;;;;;;;;;1.00;1.00;;;;;23.04;100.00;101642.13;5088451;27;46167;-74
2023/08/12 09:13:31;;;;;;;;;1.00;1.00;;;;;23.16;100.00;101651.88;5090740;27;45401;-74
2023/08/12 09:15:57;;;;;;;;;3.33;2.00;;;;;23.13;100.00;101641.34;5082921;28;45304;-74
2023/08/12 09:18:24;;;;;;;;;4.00;1.00;;;;;23.32;100.00;101636.06;5099979;27;45828;-74
2023/08/12 09:20:50;;;;;;;;;3.67;2.33;;;;;23.46;100.00;101636.72;5099962;27;46196;-74
2023/08/12 09:23:15;;;;;;;;;6.00;6.00;;;;;23.59;100.00;101645.44;5078854;27;45509;-75
2023/08/12 09:25:43;;;;;;;;;1.00;1.00;;;;;23.63;100.00;101657.66;5085964;27;45440;-74
2023/08/12 09:28:10;;;;;;;;;4.67;3.00;;;;;23.68;100.00;101648.19;5084895;27;45409;-74
2023/08/12 09:30:38;;;;;;;;;3.33;1.00;;;;;23.56;100.00;101622.25;5092409;27;45300;-75
2023/08/12 09:33:07;;;;;;;;;1.67;1.67;;;;;23.75;100.00;101651.19;5087282;27;45237;-75
2023/08/12 09:35:38;;;;;;;;;2.00;2.00;;;;;23.90;100.00;101654.38;5073021;27;45494;-74
2023/08/12 09:38:05;;;;;;;;;0.67;0.00;;;;;23.93;100.00;101654.94;5085731;27;45297;-74
2023/08/12 09:40:32;;;;;;;;;0.67;0.67;;;;;23.96;100.00;101653.81;5087386;27;45471;-75
2023/08/12 09:42:58;;;;;;;;;1.33;1.33;;;;;24.02;100.00;101656.00;5096942;27;45353;-74
2023/08/12 09:45:25;;;;;;;;;2.67;2.00;;;;;23.97;94.47;101661.78;5083593;27;45394;-74
2023/08/12 09:47:51;;;;;;;;;1.00;1.00;;;;;23.89;96.82;101656.22;5083708;27;45539;-74
2023/08/12 09:50:16;;;;;;;;;1.00;1.00;;;;;23.99;95.78;101670.59;5084572;27;45486;-74
2023/08/12 09:52:41;;;;;;;;;2.00;0.67;;;;;23.93;96.07;101667.59;5068684;27;45312;-74
2023/08/12 09:55:08;;;;;;;;;1.00;1.00;;;;;23.81;96.13;101669.56;5100255;27;45320;-74
2023/08/12 09:57:36;;;;;;;;;2.00;1.00;;;;;23.67;95.40;101667.22;5082421;27;45487;-74
2023/08/12 10:00:03;;;;;;;;;1.33;0.33;;;;;23.62;97.15;101673.06;5075487;27;45214;-74
2023/08/12 10:02:29;;;;;;;;;3.33;3.33;;;;;23.51;100.00;101658.75;5101108;27;45530;-74
2023/08/12 10:04:56;;;;;;;;;3.00;2.67;;;;;23.51;100.00;101665.03;5100414;27;45293;-74
2023/08/12 10:07:23;;;;;;;;;2.67;1.00;;;;;23.72;100.00;101665.00;5096285;27;45536;-75
2023/08/12 10:09:49;;;;;;;;;2.00;2.00;;;;;23.86;99.52;101661.88;5081498;27;45224;-75
2023/08/12 10:12:15;;;;;;;;;3.00;3.00;;;;;23.86;100.00;101660.03;5093957;27;45537;-74
2023/08/12 10:14:41;;;;;;;;;3.67;1.00;;;;;23.92;96.83;101665.91;5090270;27;45327;-74
2023/08/12 10:17:09;;;;;;;;;1.67;1.00;;;;;23.77;97.32;101649.22;5099716;27;45397;-74
2023/08/12 10:19:36;;;;;;;;;2.67;2.00;;;;;24.03;95.06;101663.09;5083693;27;45553;-74
2023/08/12 10:22:03;;;;;;;;;2.00;1.00;;;;;24.05;95.22;101655.72;5082080;27;45411;-74
2023/08/12 10:24:29;;;;;;;;;3.00;1.00;;;;;24.15;91.27;101656.59;5081005;27;45500;-74
2023/08/12 10:26:55;;;;;;;;;3.00;1.67;;;;;24.12;94.22;101651.47;5080072;27;45667;-74
2023/08/12 10:29:22;;;;;;;;;1.00;1.00;;;;;24.49;92.25;101659.78;5079729;27;47653;-74
2023/08/12 10:31:48;;;;;;;;;3.33;2.00;;;;;24.79;92.41;101663.22;5092351;27;45516;-74
2023/08/12 10:34:25;;;;;;;;;1.00;0.00;;;;;24.94;88.93;101651.97;5075628;27;45322;-74
2023/08/12 10:37:00;;;;;;;;;2.00;1.00;;;;;25.13;88.93;101649.25;5075936;28;45455;-74
2023/08/12 10:39:26;;;;;;;;;1.00;1.00;;;;;25.24;88.06;101630.13;5093063;27;45251;-73
2023/08/12 10:41:54;;;;;;;;;3.00;1.00;;;;;25.44;84.30;101656.16;5078594;28;45322;-74
2023/08/12 10:44:21;;;;;;;;;1.00;1.00;;;;;25.58;91.62;101661.13;5094079;27;46904;-74
2023/08/12 10:46:51;;;;;;;;;0.00;0.00;;;;;25.48;84.50;101645.88;5093132;27;45357;-74
2023/08/12 10:49:19;;;;;;;;;1.00;1.00;;;;;25.52;82.93;101650.03;5080286;27;45320;-75
2023/08/12 10:51:53;;;;;;;;;1.00;0.00;;;;;25.51;87.56;101642.91;5089895;27;45457;-75
2023/08/12 10:54:29;;;;;;;;;0.00;0.00;;;;;25.47;82.83;101645.00;5081140;27;45318;-74
2023/08/12 10:57:03;;;;;;;;;1.33;0.00;;;;;25.55;81.34;101647.03;5087561;27;45543;-74
2023/08/12 10:59:49;;;;;;;;;0.00;0.00;;;;;25.61;77.47;101641.00;5087285;27;45357;-74
2023/08/12 11:02:19;;;;;;;;;0.00;0.00;;;;;25.74;87.36;101636.97;5103699;27;45400;-75
2023/08/12 11:04:49;;;;;;;;;0.67;0.00;;;;;25.88;79.63;101638.31;5084985;27;45319;-74
2023/08/12 11:07:16;;;;;;;;;1.33;0.00;;;;;25.98;80.22;101646.41;5085509;27;45418;-75
2023/08/12 11:09:41;;;;;;;;;2.33;1.00;;;;;26.08;79.58;101631.75;5085350;27;46158;-74
2023/08/12 11:12:08;;;;;;;;;0.33;0.33;;;;;26.18;75.83;101624.44;5085508;28;45375;-75
2023/08/12 11:14:47;;;;;;;;;0.00;0.00;;;;;26.27;76.47;101634.41;5082988;28;45544;-74